createdAt,value
2022-12-06T00:00:10.575Z,0.67
2022-12-06T00:02:38.744Z,0.93
2022-12-06T00:05:07.270Z,0.90
2022-12-06T00:07:36.746Z,0.63
2022-12-06T00:10:05.657Z,0.43
2022-12-06T00:12:33.716Z,0.40
2022-12-06T00:15:01.781Z,0.50
2022-12-06T00:17:29.835Z,0.40
2022-12-06T00:19:58.300Z,0.60
2022-12-06T00:22:26.495Z,0.40
2022-12-06T00:24:55.968Z,0.97
2022-12-06T00:27:24.041Z,0.60
2022-12-06T00:29:52.183Z,0.40
2022-12-06T00:32:20.282Z,0.50
2022-12-06T00:34:48.373Z,0.63
2022-12-06T00:37:16.479Z,0.40
2022-12-06T00:39:44.575Z,1.13
2022-12-06T00:42:14.056Z,0.40
2022-12-06T00:44:42.105Z,0.60
2022-12-06T00:47:10.193Z,0.97
2022-12-06T00:49:38.263Z,0.60
2022-12-06T00:52:06.463Z,0.47
2022-12-06T00:54:34.539Z,0.53
2022-12-06T00:57:02.602Z,0.70
2022-12-06T00:59:32.352Z,1.20
2022-12-06T01:02:00.435Z,1.17
2022-12-06T01:04:28.523Z,0.70
2022-12-06T01:06:56.635Z,0.40
2022-12-06T01:09:24.871Z,1.90
2022-12-06T01:11:52.821Z,0.77
2022-12-06T01:14:20.754Z,1.27
2022-12-06T01:16:50.175Z,0.60
2022-12-06T01:19:18.158Z,1.88
2022-12-06T01:21:46.136Z,2.40
2022-12-06T01:24:14.082Z,1.90
2022-12-06T01:26:42.029Z,2.08
2022-12-06T01:29:11.543Z,2.67
2022-12-06T01:31:39.524Z,1.90
2022-12-06T01:34:14.550Z,1.92
2022-12-06T01:36:42.828Z,3.00
2022-12-06T01:39:11.311Z,1.70
2022-12-06T01:41:40.021Z,2.70
2022-12-06T01:44:08.578Z,2.50
2022-12-06T01:46:42.659Z,2.55
2022-12-06T01:49:20.102Z,1.67
2022-12-06T01:51:50.901Z,2.10
2022-12-06T01:54:21.785Z,2.00
2022-12-06T01:56:50.574Z,1.90
2022-12-06T01:59:19.193Z,2.40
2022-12-06T02:01:47.847Z,2.13
2022-12-06T02:04:18.687Z,1.90
2022-12-06T02:06:47.631Z,1.92
2022-12-06T02:09:17.278Z,2.20
2022-12-06T02:11:47.304Z,2.35
2022-12-06T02:14:18.294Z,2.20
2022-12-06T02:17:00.889Z,2.20
2022-12-06T02:19:56.680Z,1.90
2022-12-06T02:22:30.752Z,2.00
2022-12-06T02:25:34.855Z,2.03
2022-12-06T02:28:28.581Z,2.35
2022-12-06T02:31:01.016Z,2.00
2022-12-06T02:33:35.741Z,1.70
2022-12-06T02:36:08.665Z,2.00
2022-12-06T02:38:43.247Z,2.40
2022-12-06T02:41:17.259Z,1.90
2022-12-06T02:43:49.466Z,2.07
2022-12-06T02:46:22.628Z,2.30
2022-12-06T02:48:54.272Z,2.40
2022-12-06T02:51:22.823Z,2.28
2022-12-06T02:53:54.048Z,2.00
2022-12-06T02:56:22.370Z,2.45
2022-12-06T02:58:50.315Z,2.00
2022-12-06T03:01:23.702Z,2.67
2022-12-06T03:04:31.688Z,4.40
2022-12-06T03:07:34.024Z,4.40
2022-12-06T03:10:23.243Z,3.75
2022-12-06T03:12:57.298Z,3.75
2022-12-06T03:15:34.890Z,2.88
2022-12-06T03:18:11.055Z,3.40
2022-12-06T03:20:45.794Z,3.23
2022-12-06T03:23:17.468Z,2.80
2022-12-06T03:25:48.154Z,2.53
2022-12-06T03:28:18.317Z,3.25
2022-12-06T03:30:50.800Z,4.10
2022-12-06T03:33:23.229Z,3.15
2022-12-06T03:35:52.393Z,2.77
2022-12-06T03:38:26.171Z,2.80
2022-12-06T03:40:56.560Z,3.28
2022-12-06T03:43:24.660Z,2.30
2022-12-06T03:45:57.863Z,3.80
2022-12-06T03:48:33.910Z,3.47
2022-12-06T03:51:06.891Z,3.03
2022-12-06T03:53:35.311Z,3.00
2022-12-06T03:56:03.239Z,3.30
2022-12-06T03:58:31.167Z,2.70
2022-12-06T04:01:04.829Z,3.20
2022-12-06T04:03:34.241Z,3.05
2022-12-06T04:06:03.157Z,3.38
2022-12-06T04:08:31.188Z,3.30
2022-12-06T04:10:59.418Z,2.70
2022-12-06T04:13:27.465Z,3.85
2022-12-06T04:15:57.190Z,2.80
2022-12-06T04:18:24.789Z,2.70
2022-12-06T04:21:17.740Z,3.20
2022-12-06T04:23:47.693Z,3.60
2022-12-06T04:26:18.367Z,3.15
2022-12-06T04:29:03.638Z,2.80
2022-12-06T04:31:49.194Z,2.63
2022-12-06T04:34:35.500Z,2.55
2022-12-06T04:37:23.181Z,2.65
2022-12-06T04:39:51.112Z,2.70
2022-12-06T04:42:36.521Z,3.30
2022-12-06T04:45:05.288Z,3.57
2022-12-06T04:47:33.240Z,2.47
2022-12-06T04:50:01.626Z,2.60
2022-12-06T04:52:35.412Z,2.85
2022-12-06T04:55:03.987Z,2.95
2022-12-06T04:57:31.940Z,2.83
2022-12-06T05:00:00.276Z,2.80
2022-12-06T05:02:28.559Z,2.92
2022-12-06T05:04:56.518Z,3.78
2022-12-06T05:07:24.465Z,2.70
2022-12-06T05:09:53.768Z,3.50
2022-12-06T05:12:21.698Z,2.60
2022-12-06T05:14:49.617Z,2.53
2022-12-06T05:17:17.549Z,2.60
2022-12-06T05:19:45.479Z,2.17
2022-12-06T05:22:13.407Z,2.80
2022-12-06T05:24:41.336Z,2.90
2022-12-06T05:27:10.626Z,3.08
2022-12-06T05:29:38.562Z,2.80
2022-12-06T05:32:07.081Z,2.95
2022-12-06T05:34:35.030Z,3.00
2022-12-06T05:37:02.956Z,3.03
2022-12-06T05:39:30.907Z,2.70
2022-12-06T05:41:58.982Z,3.00
2022-12-06T05:44:28.267Z,2.37
2022-12-06T05:46:56.221Z,2.90
2022-12-06T05:49:24.188Z,2.58
2022-12-06T05:51:52.193Z,1.83
2022-12-06T05:54:20.769Z,1.37
2022-12-06T05:56:50.766Z,1.90
2022-12-06T05:59:18.768Z,2.40
2022-12-06T06:01:48.104Z,3.20
2022-12-06T06:04:16.062Z,2.70
2022-12-06T06:06:44.003Z,2.60
2022-12-06T06:09:11.923Z,1.87
2022-12-06T06:11:39.885Z,1.00
2022-12-06T06:14:07.806Z,0.73
2022-12-06T06:16:35.852Z,0.50
2022-12-06T06:19:05.184Z,0.80
2022-12-06T06:21:33.534Z,0.50
2022-12-06T06:24:01.550Z,1.23
2022-12-06T06:26:29.758Z,0.70
2022-12-06T06:28:57.839Z,0.50
2022-12-06T06:31:25.815Z,0.60
2022-12-06T06:33:53.778Z,0.60
2022-12-06T06:36:23.083Z,0.50
2022-12-06T06:38:51.009Z,0.40
2022-12-06T06:41:18.931Z,1.17
2022-12-06T06:43:46.869Z,1.00
2022-12-06T06:46:14.848Z,0.93
2022-12-06T06:48:42.925Z,0.70
2022-12-06T06:51:12.936Z,1.13
2022-12-06T06:53:42.311Z,0.50
2022-12-06T06:56:11.168Z,0.50
2022-12-06T06:58:39.205Z,0.87
2022-12-06T07:01:09.764Z,0.60
2022-12-06T07:03:37.759Z,0.50
2022-12-06T07:06:09.767Z,0.47
2022-12-06T07:08:38.291Z,0.90
2022-12-06T07:11:07.806Z,0.90
2022-12-06T07:13:37.370Z,0.93
2022-12-06T07:16:06.668Z,0.70
2022-12-06T07:18:34.859Z,0.57
2022-12-06T07:21:05.323Z,0.40
2022-12-06T07:23:34.785Z,0.70
2022-12-06T07:26:03.726Z,0.90
2022-12-06T07:28:33.576Z,1.00
2022-12-06T07:31:09.206Z,0.73
2022-12-06T07:33:37.289Z,0.40
2022-12-06T07:36:13.880Z,0.40
2022-12-06T07:38:43.179Z,0.80
2022-12-06T07:41:31.011Z,0.60
2022-12-06T07:44:18.582Z,1.47
2022-12-06T07:46:46.769Z,0.60
2022-12-06T07:49:16.667Z,0.50
2022-12-06T07:51:45.073Z,0.40
2022-12-06T07:54:13.785Z,0.70
2022-12-06T07:56:41.891Z,0.40
2022-12-06T07:59:11.655Z,0.70
2022-12-06T08:01:39.811Z,0.50
2022-12-06T08:04:09.256Z,0.77
2022-12-06T08:06:38.610Z,0.90
2022-12-06T08:09:07.024Z,0.80
2022-12-06T08:11:35.400Z,0.70
2022-12-06T08:14:03.892Z,1.17
2022-12-06T08:16:33.304Z,1.40
2022-12-06T08:19:01.840Z,0.93
2022-12-06T08:21:30.123Z,1.27
2022-12-06T08:23:58.122Z,0.73
2022-12-06T08:26:26.246Z,0.57
2022-12-06T08:28:54.182Z,0.47
2022-12-06T08:31:24.432Z,0.90
2022-12-06T08:33:53.854Z,0.40
2022-12-06T08:36:23.533Z,0.43
2022-12-06T08:38:52.064Z,0.80
2022-12-06T08:41:37.903Z,0.90
2022-12-06T08:44:06.313Z,0.97
2022-12-06T08:46:35.361Z,0.87
2022-12-06T08:49:05.217Z,0.77
2022-12-06T08:51:35.231Z,0.80
2022-12-06T08:54:03.405Z,0.60
2022-12-06T08:56:31.476Z,1.03
2022-12-06T08:58:59.522Z,1.10
2022-12-06T09:01:37.153Z,0.60
2022-12-06T09:04:09.434Z,0.87
2022-12-06T09:06:39.947Z,1.07
2022-12-06T09:09:09.368Z,0.80
2022-12-06T09:11:37.575Z,0.73
2022-12-06T09:14:05.907Z,0.50
2022-12-06T09:16:33.979Z,0.90
2022-12-06T09:19:02.383Z,0.67
2022-12-06T09:21:32.987Z,0.77
2022-12-06T09:24:01.090Z,1.20
2022-12-06T09:26:29.933Z,0.50
2022-12-06T09:28:59.147Z,1.00
2022-12-06T09:31:27.263Z,0.77
2022-12-06T09:33:55.311Z,1.80
2022-12-06T09:36:25.230Z,0.57
2022-12-06T09:38:58.214Z,0.80
2022-12-06T09:41:45.829Z,1.03
2022-12-06T09:44:35.115Z,0.70
2022-12-06T09:47:18.536Z,0.83
2022-12-06T09:49:58.558Z,1.23
2022-12-06T09:52:45.987Z,0.50
2022-12-06T09:55:29.397Z,1.13
2022-12-06T09:58:03.048Z,0.87
2022-12-06T10:00:41.766Z,1.93
2022-12-06T10:03:34.895Z,0.60
2022-12-06T10:06:05.458Z,0.73
2022-12-06T10:08:51.528Z,0.50
2022-12-06T10:11:33.727Z,0.87
2022-12-06T10:14:10.192Z,0.87
2022-12-06T10:16:50.520Z,1.13
2022-12-06T10:19:29.750Z,0.80
2022-12-06T10:22:10.571Z,0.60
2022-12-06T10:24:49.891Z,1.10
2022-12-06T10:27:26.267Z,0.40
2022-12-06T10:29:57.678Z,0.87
2022-12-06T10:32:41.081Z,0.97
2022-12-06T10:35:18.814Z,1.33
2022-12-06T10:37:59.213Z,1.00
2022-12-06T10:40:31.861Z,0.70
2022-12-06T10:43:10.040Z,1.23
2022-12-06T10:46:05.759Z,1.33
2022-12-06T10:48:43.440Z,0.63
2022-12-06T10:51:17.981Z,0.50
2022-12-06T10:53:52.302Z,0.70
2022-12-06T10:56:24.885Z,1.47
2022-12-06T10:58:59.595Z,0.77
2022-12-06T11:01:29.791Z,0.53
2022-12-06T11:04:02.683Z,0.90
2022-12-06T11:06:35.420Z,1.80
2022-12-06T11:09:14.200Z,0.67
2022-12-06T11:11:42.603Z,0.93
2022-12-06T11:14:21.831Z,0.73
2022-12-06T11:16:56.542Z,0.90
2022-12-06T11:19:31.540Z,1.73
2022-12-06T11:22:09.660Z,1.23
2022-12-06T11:24:47.864Z,0.93
2022-12-06T11:27:22.750Z,0.83
2022-12-06T11:29:53.280Z,1.77
2022-12-06T11:32:21.359Z,0.67
2022-12-06T11:34:52.366Z,0.87
2022-12-06T11:37:23.248Z,1.50
2022-12-06T11:39:57.697Z,0.80
2022-12-06T11:42:28.451Z,0.80
2022-12-06T11:45:05.321Z,2.40
2022-12-06T11:47:33.714Z,0.50
2022-12-06T11:50:07.504Z,1.87
2022-12-06T11:52:41.927Z,0.40
2022-12-06T11:55:18.409Z,0.67
2022-12-06T11:57:51.558Z,0.90
2022-12-06T12:00:22.865Z,2.03
2022-12-06T12:02:52.418Z,0.73
2022-12-06T12:05:22.957Z,1.07
2022-12-06T12:07:55.317Z,2.10
2022-12-06T12:10:34.243Z,0.97
2022-12-06T12:13:39.365Z,1.10
2022-12-06T12:16:17.388Z,1.30
2022-12-06T12:18:52.491Z,1.03
2022-12-06T12:21:35.721Z,0.77
2022-12-06T12:24:04.952Z,0.93
2022-12-06T12:26:39.009Z,0.60
2022-12-06T12:29:16.783Z,1.07
2022-12-06T12:31:54.921Z,0.50
2022-12-06T12:34:25.644Z,1.10
2022-12-06T12:36:55.967Z,0.60
2022-12-06T12:39:39.693Z,0.67
2022-12-06T12:42:28.476Z,0.50
2022-12-06T12:44:59.802Z,0.53
2022-12-06T12:47:29.786Z,1.07
2022-12-06T12:50:02.855Z,1.70
2022-12-06T12:52:33.271Z,0.77
2022-12-06T12:55:03.657Z,0.97
2022-12-06T12:57:31.902Z,0.80
2022-12-06T12:59:59.943Z,0.80
2022-12-06T13:02:31.882Z,1.23
2022-12-06T13:07:55.463Z,1.10
2022-12-06T13:10:30.451Z,1.00
2022-12-06T13:13:02.268Z,0.63
2022-12-06T13:15:35.143Z,1.60
2022-12-06T13:18:11.203Z,0.40
2022-12-06T13:20:40.598Z,0.77
2022-12-06T13:23:13.710Z,0.80
2022-12-06T13:25:43.734Z,0.87
2022-12-06T13:28:19.941Z,0.97
2022-12-06T13:30:51.915Z,0.80
2022-12-06T13:33:24.370Z,0.70
2022-12-06T13:35:57.004Z,0.77
2022-12-06T13:38:31.593Z,0.50
2022-12-06T13:41:00.173Z,0.93
2022-12-06T13:43:55.630Z,0.63
2022-12-06T13:46:31.795Z,0.70
2022-12-06T13:49:03.685Z,0.80
2022-12-06T13:51:50.565Z,0.57
2022-12-06T13:54:32.176Z,1.00
2022-12-06T13:57:02.842Z,0.50
2022-12-06T13:59:41.363Z,0.63
2022-12-06T14:02:49.198Z,0.93
2022-12-06T14:08:23.639Z,0.90
2022-12-06T14:10:51.701Z,1.33
2022-12-06T14:13:21.515Z,0.60
2022-12-06T14:15:53.646Z,1.53
2022-12-06T14:18:24.903Z,0.83
2022-12-06T14:20:55.023Z,1.23
2022-12-06T14:23:27.468Z,1.00
2022-12-06T14:26:18.262Z,0.73
2022-12-06T14:28:46.874Z,0.83
2022-12-06T14:31:25.277Z,0.93
2022-12-06T14:33:54.282Z,0.70
2022-12-06T14:36:27.342Z,0.90
2022-12-06T14:39:01.294Z,0.70
2022-12-06T14:41:51.670Z,1.33
2022-12-06T14:44:21.560Z,0.80
2022-12-06T14:46:50.671Z,1.00
2022-12-06T14:49:39.247Z,2.47
2022-12-06T14:52:24.891Z,0.73
2022-12-06T14:55:09.083Z,0.70
2022-12-06T14:57:39.684Z,0.63
2022-12-06T15:00:20.442Z,0.50
2022-12-06T15:03:04.241Z,0.60
2022-12-06T15:05:37.806Z,1.43
2022-12-06T15:08:33.455Z,0.50
2022-12-06T15:11:04.778Z,0.90
2022-12-06T15:13:32.214Z,1.60
2022-12-06T15:16:13.019Z,0.53
2022-12-06T15:18:43.002Z,0.97
2022-12-06T15:21:15.562Z,0.60
2022-12-06T15:23:50.192Z,1.70
2022-12-06T15:26:20.831Z,1.03
2022-12-06T15:28:49.379Z,1.33
2022-12-06T15:31:20.236Z,1.17
2022-12-06T15:33:48.334Z,0.70
2022-12-06T15:36:21.179Z,0.90
2022-12-06T15:38:49.411Z,0.70
2022-12-06T15:41:20.918Z,0.60
2022-12-06T15:43:49.807Z,1.53
2022-12-06T15:46:20.445Z,1.60
2022-12-06T15:48:48.566Z,2.60
2022-12-06T15:51:20.849Z,1.33
2022-12-06T15:53:50.563Z,1.37
2022-12-06T15:56:21.619Z,0.83
2022-12-06T15:58:50.837Z,0.50
2022-12-06T16:01:20.841Z,1.37
2022-12-06T16:03:49.015Z,1.47
2022-12-06T16:06:18.549Z,1.37
2022-12-06T16:08:47.102Z,2.20
2022-12-06T16:11:16.996Z,1.17
2022-12-06T16:13:46.320Z,0.70
2022-12-06T16:16:16.387Z,1.00
2022-12-06T16:18:44.522Z,1.30
2022-12-06T16:21:21.368Z,0.90
2022-12-06T16:24:13.883Z,0.80
2022-12-06T16:26:44.800Z,1.57
2022-12-06T16:29:16.967Z,1.47
2022-12-06T16:31:46.551Z,1.10
2022-12-06T16:34:14.893Z,1.67
2022-12-06T16:36:57.489Z,2.30
2022-12-06T16:39:25.440Z,2.10
2022-12-06T16:41:53.357Z,1.03
2022-12-06T16:44:22.925Z,1.27
2022-12-06T16:46:51.914Z,0.87
2022-12-06T16:52:09.856Z,1.33
2022-12-06T16:54:40.938Z,0.73
2022-12-06T16:57:09.977Z,0.40
2022-12-06T16:59:40.335Z,2.00
2022-12-06T17:02:22.198Z,1.50
2022-12-06T17:04:50.109Z,0.80
2022-12-06T17:07:18.074Z,3.30
2022-12-06T17:09:46.028Z,1.27
2022-12-06T17:12:15.165Z,0.83
2022-12-06T17:14:44.630Z,0.50
2022-12-06T17:17:14.120Z,1.07
2022-12-06T17:19:43.256Z,0.67
2022-12-06T17:22:12.255Z,0.70
2022-12-06T17:24:40.578Z,0.50
2022-12-06T17:27:09.506Z,0.50
2022-12-06T17:29:37.663Z,1.30
2022-12-06T17:32:08.004Z,0.57
2022-12-06T17:34:36.257Z,0.57
2022-12-06T17:37:04.858Z,0.63
2022-12-06T17:39:32.922Z,0.70
2022-12-06T17:42:18.248Z,1.07
2022-12-06T17:44:46.266Z,0.77
2022-12-06T17:47:15.549Z,1.60
2022-12-06T17:49:43.474Z,2.53
2022-12-06T17:52:12.063Z,0.60
2022-12-06T17:54:40.020Z,0.50
2022-12-06T17:57:07.983Z,0.53
2022-12-06T17:59:35.955Z,0.40
2022-12-06T18:02:15.346Z,0.40
2022-12-06T18:04:45.826Z,0.40
2022-12-06T18:07:15.082Z,0.90
2022-12-06T18:09:43.014Z,1.07
2022-12-06T18:12:12.327Z,0.77
2022-12-06T18:14:40.485Z,0.40
2022-12-06T18:17:08.711Z,0.60
2022-12-06T18:19:36.697Z,0.90
2022-12-06T18:22:06.016Z,0.60
2022-12-06T18:24:36.209Z,0.90
2022-12-06T18:27:05.191Z,1.00
2022-12-06T18:29:33.228Z,0.50
2022-12-06T18:32:01.226Z,1.00
2022-12-06T18:34:29.332Z,0.70
2022-12-06T18:36:57.484Z,0.83
2022-12-06T18:39:27.842Z,0.50
2022-12-06T18:41:56.320Z,0.57
2022-12-06T18:44:24.749Z,0.60
2022-12-06T18:46:52.788Z,0.97
2022-12-06T18:49:20.746Z,1.10
2022-12-06T18:51:48.683Z,0.80
2022-12-06T18:54:16.643Z,1.30
2022-12-06T18:56:46.032Z,0.70
2022-12-06T18:59:13.985Z,0.47
2022-12-06T19:01:42.323Z,0.70
2022-12-06T19:04:14.277Z,0.40
2022-12-06T19:06:43.577Z,0.60
2022-12-06T19:09:13.398Z,0.90
2022-12-06T19:11:43.475Z,0.77
2022-12-06T19:14:12.976Z,0.60
2022-12-06T19:16:42.800Z,0.60
2022-12-06T19:19:16.177Z,0.60
2022-12-06T19:21:45.441Z,1.00
2022-12-06T19:24:15.619Z,0.60
2022-12-06T19:26:43.808Z,0.70
2022-12-06T19:29:13.168Z,0.90
2022-12-06T19:31:41.186Z,1.67
2022-12-06T19:34:15.272Z,0.77
2022-12-06T19:36:43.374Z,0.50
2022-12-06T19:39:12.496Z,0.70
2022-12-06T19:41:54.531Z,0.73
2022-12-06T19:44:23.841Z,1.60
2022-12-06T19:46:52.452Z,0.40
2022-12-06T19:49:23.267Z,0.40
2022-12-06T19:51:51.894Z,0.57
2022-12-06T19:54:22.142Z,0.87
2022-12-06T19:56:51.180Z,2.00
2022-12-06T19:59:19.441Z,0.50
2022-12-06T20:01:50.183Z,0.53
2022-12-06T20:04:20.021Z,0.40
2022-12-06T20:06:48.505Z,0.60
2022-12-06T20:09:17.319Z,0.80
2022-12-06T20:12:04.461Z,0.50
2022-12-06T20:14:37.211Z,0.40
2022-12-06T20:17:08.964Z,0.53
2022-12-06T20:19:37.254Z,0.40
2022-12-06T20:22:05.228Z,0.80
2022-12-06T20:24:33.177Z,0.83
2022-12-06T20:27:01.263Z,1.87
2022-12-06T20:29:30.128Z,0.60
2022-12-06T20:31:59.397Z,0.70
2022-12-06T20:34:33.685Z,0.63
2022-12-06T20:37:03.498Z,0.60
2022-12-06T20:39:32.993Z,0.70
2022-12-06T20:42:03.121Z,0.80
2022-12-06T20:44:31.524Z,0.83
2022-12-06T20:47:00.173Z,0.90
2022-12-06T20:49:29.674Z,0.63
2022-12-06T20:51:59.563Z,0.40
2022-12-06T20:54:27.523Z,0.43
2022-12-06T20:56:55.482Z,0.50
2022-12-06T20:59:23.445Z,0.87
2022-12-06T21:01:51.560Z,0.50
2022-12-06T21:04:19.710Z,0.93
2022-12-06T21:06:49.070Z,0.60
2022-12-06T21:09:17.078Z,1.13
2022-12-06T21:11:45.077Z,0.40
2022-12-06T21:14:14.172Z,0.40
2022-12-06T21:16:43.117Z,0.40
2022-12-06T21:19:13.624Z,0.50
2022-12-06T21:21:45.151Z,0.73
2022-12-06T21:24:17.406Z,0.97
2022-12-06T21:26:45.723Z,1.63
2022-12-06T21:29:16.733Z,0.53
2022-12-06T21:31:44.980Z,1.13
2022-12-06T21:34:13.452Z,0.73
2022-12-06T21:36:42.050Z,0.73
2022-12-06T21:39:12.284Z,0.60
2022-12-06T21:41:42.112Z,0.60
2022-12-06T21:44:10.226Z,0.50
2022-12-06T21:46:38.232Z,0.67
2022-12-06T21:49:06.195Z,0.60
2022-12-06T21:51:34.307Z,0.70
2022-12-06T21:54:02.282Z,0.50
2022-12-06T21:56:32.798Z,1.10
2022-12-06T21:59:02.380Z,1.97
2022-12-06T22:01:32.270Z,0.50
2022-12-06T22:04:02.216Z,0.40
2022-12-06T22:06:31.461Z,0.50
2022-12-06T22:09:01.256Z,0.73
2022-12-06T22:11:30.546Z,0.40
2022-12-06T22:13:59.722Z,0.50
2022-12-06T22:16:29.907Z,0.60
2022-12-06T22:18:58.595Z,1.37
2022-12-06T22:21:28.354Z,1.37
2022-12-06T22:23:57.931Z,1.27
2022-12-06T22:26:28.201Z,0.70
2022-12-06T22:28:56.678Z,0.40
2022-12-06T22:31:27.295Z,0.50
2022-12-06T22:33:58.292Z,0.63
2022-12-06T22:36:27.196Z,0.40
2022-12-06T22:38:56.897Z,0.83
2022-12-06T22:41:25.584Z,0.40
2022-12-06T22:43:55.386Z,1.10
2022-12-06T22:46:26.170Z,1.33
2022-12-06T22:48:55.185Z,0.67
2022-12-06T22:51:26.610Z,0.50
2022-12-06T22:53:58.155Z,0.93
2022-12-06T22:56:26.330Z,0.50
2022-12-06T22:58:54.963Z,0.50
2022-12-06T23:01:25.672Z,0.50
2022-12-06T23:03:54.736Z,0.70
2022-12-06T23:06:25.950Z,0.70
2022-12-06T23:08:54.519Z,0.83
2022-12-06T23:11:25.161Z,0.77
2022-12-06T23:13:53.636Z,0.40
2022-12-06T23:16:24.436Z,0.60
2022-12-06T23:18:53.093Z,0.40
2022-12-06T23:21:23.072Z,0.60
2022-12-06T23:23:54.021Z,0.40
2022-12-06T23:26:24.094Z,0.50
2022-12-06T23:28:52.181Z,0.83
2022-12-06T23:31:22.635Z,1.47
2022-12-06T23:33:54.536Z,1.27
2022-12-06T23:36:24.469Z,0.73
2022-12-06T23:38:54.246Z,0.70
2022-12-06T23:41:23.971Z,0.50
2022-12-06T23:43:52.165Z,0.40
2022-12-06T23:46:22.982Z,0.40
2022-12-06T23:48:51.299Z,1.37
2022-12-06T23:51:21.622Z,0.40
2022-12-06T23:53:53.608Z,1.07
2022-12-06T23:56:22.775Z,0.83
2022-12-06T23:58:52.237Z,1.23
